Keimoes, South Africa
Current Conditions -  °F | °C
As of 11:00 AM on Wednesday 22 Oct 2014 (Local Time) from FAUP Reporting Station
Clear Clear  
Wind Chill: 91°   Ceiling: Unl
Heat Index: 91°   Visibility: 6mi
Dew Point: 28°   Wind: 2mph
Humidity: 10%   Direction: 300°WNW
Pressure: 30.03"   Gusts: NA
Location:  28.71°S, 20.98°E
Report Text: FAUP 220900Z 30002KT CAVOK 33/M02 Q1017 NOSIG
Loading
Personal Weather Stations






























Interactive Weather Map
Tropical Storm Tracking
New forecast layout! Learn more

10-Day Weather Forecast

Advertisements
Track Severe Weather on mobile